createdAt,value
2023-05-20T00:02:06.928Z,3.17
2023-05-20T00:04:33.588Z,3.17
2023-05-20T00:07:00.332Z,2.20
2023-05-20T00:09:26.969Z,2.58
2023-05-20T00:11:53.549Z,3.55
2023-05-20T00:14:20.187Z,5.07
2023-05-20T00:16:47.040Z,7.72
2023-05-20T00:19:13.814Z,4.90
2023-05-20T00:21:40.540Z,3.53
2023-05-20T00:24:07.311Z,2.70
2023-05-20T00:26:33.955Z,2.40
2023-05-20T00:29:00.546Z,2.22
2023-05-20T00:31:27.261Z,2.20
2023-05-20T00:33:53.928Z,2.30
2023-05-20T00:36:20.595Z,2.67
2023-05-20T00:38:47.414Z,3.03
2023-05-20T00:41:14.037Z,2.60
2023-05-20T00:43:40.671Z,2.65
2023-05-20T00:46:07.652Z,2.65
2023-05-20T00:48:44.660Z,2.45
2023-05-20T00:51:13.227Z,2.88
2023-05-20T00:53:40.466Z,2.25
2023-05-20T00:56:08.941Z,2.40
2023-05-20T00:58:37.239Z,2.72
2023-05-20T01:01:05.664Z,2.97
2023-05-20T01:03:33.224Z,2.55
2023-05-20T01:08:27.549Z,2.03
2023-05-20T01:11:08.161Z,2.35
2023-05-20T01:13:46.979Z,2.15
2023-05-20T01:16:17.934Z,2.17
2023-05-20T01:18:47.258Z,2.47
2023-05-20T01:21:15.500Z,2.28
2023-05-20T01:23:42.276Z,2.60
2023-05-20T01:26:09.803Z,2.47
2023-05-20T01:28:37.438Z,2.50
2023-05-20T01:31:07.667Z,2.90
2023-05-20T01:33:36.547Z,2.38
2023-05-20T01:36:03.791Z,2.90
2023-05-20T01:38:31.670Z,2.40
2023-05-20T01:40:59.582Z,2.47
2023-05-20T01:43:27.380Z,3.13
2023-05-20T01:45:54.175Z,2.47
2023-05-20T01:48:21.429Z,2.97
2023-05-20T01:50:48.227Z,4.03
2023-05-20T01:53:16.666Z,3.40
2023-05-20T01:55:43.455Z,3.22
2023-05-20T01:58:10.139Z,3.17
2023-05-20T02:00:36.835Z,2.95
2023-05-20T02:03:04.187Z,3.77
2023-05-20T02:05:30.925Z,3.42
2023-05-20T02:07:58.193Z,3.23
2023-05-20T02:10:25.164Z,3.10
2023-05-20T02:12:51.856Z,2.58
2023-05-20T02:15:18.613Z,3.72
2023-05-20T02:17:46.587Z,2.60
2023-05-20T02:20:14.304Z,3.17
2023-05-20T02:22:41.038Z,2.97
2023-05-20T02:25:08.286Z,4.18
2023-05-20T02:27:34.901Z,3.60
2023-05-20T02:30:01.784Z,3.58
2023-05-20T02:32:28.506Z,4.68
2023-05-20T02:34:55.856Z,3.80
2023-05-20T02:37:22.723Z,5.10
2023-05-20T02:39:49.394Z,6.35
2023-05-20T02:42:16.156Z,5.53
2023-05-20T02:44:43.504Z,7.10
2023-05-20T02:47:10.594Z,7.82
2023-05-20T02:49:37.284Z,7.22
2023-05-20T02:52:04.124Z,7.93
2023-05-20T02:54:30.759Z,7.03
2023-05-20T02:56:57.907Z,6.70
2023-05-20T02:59:24.552Z,5.85
2023-05-20T03:01:51.253Z,5.78
2023-05-20T03:04:18.383Z,5.90
2023-05-20T03:06:45.915Z,5.88
2023-05-20T03:09:12.586Z,5.63
2023-05-20T03:11:39.824Z,6.72
2023-05-20T03:14:06.512Z,5.38
2023-05-20T03:16:33.610Z,5.22
2023-05-20T03:19:00.346Z,5.40
2023-05-20T03:21:27.081Z,5.22
2023-05-20T03:23:53.999Z,5.35
2023-05-20T03:26:20.705Z,6.70
2023-05-20T03:28:47.344Z,6.55
2023-05-20T03:31:14.337Z,7.47
2023-05-20T03:33:41.142Z,6.90
2023-05-20T03:36:08.404Z,6.72
2023-05-20T03:38:35.241Z,6.97
2023-05-20T03:41:02.057Z,8.48
2023-05-20T03:43:28.748Z,8.52
2023-05-20T03:45:55.371Z,8.75
2023-05-20T03:48:22.686Z,8.70
2023-05-20T03:50:49.779Z,9.23
2023-05-20T03:53:16.699Z,7.50
2023-05-20T03:55:43.377Z,8.18
2023-05-20T03:58:13.766Z,9.57
2023-05-20T04:00:40.872Z,12.07
2023-05-20T04:03:07.598Z,14.57
2023-05-20T04:05:36.298Z,12.38
2023-05-20T04:08:05.983Z,10.25
2023-05-20T04:10:33.038Z,8.50
2023-05-20T04:12:59.909Z,9.38
2023-05-20T04:15:26.616Z,8.55
2023-05-20T04:17:55.932Z,7.05
2023-05-20T04:20:22.806Z,6.97
2023-05-20T04:22:50.777Z,8.98
2023-05-20T04:25:17.653Z,7.75
2023-05-20T04:27:44.398Z,9.48
2023-05-20T04:30:11.892Z,9.82
2023-05-20T04:32:41.235Z,10.90
2023-05-20T04:35:08.250Z,8.05
2023-05-20T04:37:35.349Z,10.60
2023-05-20T04:40:01.988Z,9.27
2023-05-20T04:42:29.080Z,9.35
2023-05-20T04:44:55.950Z,9.45
2023-05-20T04:47:23.793Z,8.38
2023-05-20T04:49:52.038Z,9.50
2023-05-20T04:52:18.731Z,9.43
2023-05-20T04:54:45.445Z,11.57
2023-05-20T04:57:14.612Z,9.05
2023-05-20T04:59:41.303Z,10.95
2023-05-20T05:02:07.989Z,9.05
2023-05-20T05:04:34.636Z,9.68
2023-05-20T05:07:01.365Z,9.63
2023-05-20T05:09:28.092Z,10.60
2023-05-20T05:11:54.929Z,8.00
2023-05-20T05:14:21.543Z,9.68
2023-05-20T05:16:48.233Z,9.25
2023-05-20T05:19:15.681Z,8.53
2023-05-20T05:21:42.931Z,7.13
2023-05-20T05:24:09.612Z,9.18
2023-05-20T05:26:36.417Z,9.02
2023-05-20T05:29:03.548Z,8.25
2023-05-20T05:31:30.200Z,8.27
2023-05-20T05:33:56.935Z,8.77
2023-05-20T05:36:24.401Z,8.57
2023-05-20T05:38:51.061Z,8.03
2023-05-20T05:41:17.925Z,8.27
2023-05-20T05:43:44.650Z,9.05
2023-05-20T05:46:11.960Z,8.67
2023-05-20T05:48:38.664Z,8.23
2023-05-20T05:51:05.550Z,9.45
2023-05-20T05:56:00.183Z,8.48
2023-05-20T05:58:26.916Z,8.63
2023-05-20T06:00:54.296Z,8.40
2023-05-20T06:03:21.030Z,8.05
2023-05-20T06:05:47.833Z,8.80
2023-05-20T06:08:14.660Z,9.52
2023-05-20T06:10:41.551Z,8.23
2023-05-20T06:13:08.206Z,8.60
2023-05-20T06:15:35.037Z,9.68
2023-05-20T06:20:30.593Z,9.80
2023-05-20T06:22:57.246Z,9.48
2023-05-20T06:25:29.677Z,10.25
2023-05-20T06:27:56.366Z,10.15
2023-05-20T06:30:24.200Z,10.07
2023-05-20T06:32:50.903Z,8.38
2023-05-20T06:35:17.820Z,9.60
2023-05-20T06:37:44.594Z,9.27
2023-05-20T06:40:12.598Z,8.80
2023-05-20T06:42:39.271Z,7.85
2023-05-20T06:45:06.598Z,9.02
2023-05-20T06:47:56.117Z,9.68
2023-05-20T06:50:22.814Z,8.30
2023-05-20T06:52:49.513Z,8.10
2023-05-20T06:55:16.196Z,8.93
2023-05-20T06:57:43.196Z,8.40
2023-05-20T07:00:10.519Z,8.48
2023-05-20T07:02:41.694Z,7.75
2023-05-20T07:05:08.986Z,8.25
2023-05-20T07:07:35.982Z,8.47
2023-05-20T07:10:02.866Z,6.95
2023-05-20T07:12:29.519Z,6.72
2023-05-20T07:14:56.157Z,7.78
2023-05-20T07:17:22.903Z,7.15
2023-05-20T07:19:50.822Z,8.13
2023-05-20T07:22:18.657Z,6.45
2023-05-20T07:24:56.054Z,6.03
2023-05-20T07:27:22.832Z,8.13
2023-05-20T07:29:49.562Z,6.68
2023-05-20T07:32:16.991Z,7.03
2023-05-20T07:34:44.762Z,6.20
2023-05-20T07:37:11.639Z,6.60
2023-05-20T07:39:39.019Z,7.30
2023-05-20T07:42:06.848Z,6.78
2023-05-20T07:44:33.742Z,7.75
2023-05-20T07:47:00.909Z,7.22
2023-05-20T07:49:27.642Z,5.70
2023-05-20T07:51:54.657Z,5.05
2023-05-20T07:54:21.279Z,5.82
2023-05-20T07:56:50.338Z,5.57
2023-05-20T07:59:18.267Z,4.30
2023-05-20T08:01:47.981Z,4.35
2023-05-20T08:04:17.306Z,3.85
2023-05-20T08:09:17.520Z,5.38
2023-05-20T08:11:48.769Z,4.00
2023-05-20T08:14:16.032Z,3.63
2023-05-20T08:16:45.012Z,4.43
2023-05-20T08:19:11.859Z,4.22
2023-05-20T08:21:38.687Z,4.85
2023-05-20T08:24:06.487Z,4.55
2023-05-20T08:26:33.212Z,4.55
2023-05-20T08:28:59.851Z,4.22
2023-05-20T08:31:26.638Z,4.55
2023-05-20T08:33:53.300Z,4.55
2023-05-20T08:36:19.941Z,3.92
2023-05-20T08:38:46.742Z,3.30
2023-05-20T08:41:13.482Z,3.42
2023-05-20T08:43:43.804Z,3.13
2023-05-20T08:46:10.875Z,3.60
2023-05-20T08:51:09.762Z,2.92
2023-05-20T08:53:36.432Z,4.03
2023-05-20T08:56:03.730Z,3.65
2023-05-20T08:58:31.069Z,2.88
2023-05-20T09:00:57.668Z,3.40
2023-05-20T09:03:24.718Z,3.55
2023-05-20T09:05:52.713Z,3.50
2023-05-20T09:10:46.829Z,3.15
2023-05-20T09:13:13.429Z,2.83
2023-05-20T09:15:40.074Z,3.38
2023-05-20T09:18:08.145Z,3.05
2023-05-20T09:20:36.846Z,2.65
2023-05-20T09:23:05.873Z,3.25
2023-05-20T09:25:33.356Z,2.78
2023-05-20T09:28:00.216Z,2.90
2023-05-20T09:30:26.950Z,2.30
2023-05-20T09:32:59.060Z,2.88
2023-05-20T09:35:27.724Z,2.50
2023-05-20T09:37:58.568Z,2.05
2023-05-20T09:40:27.247Z,2.83
2023-05-20T09:42:57.548Z,3.85
2023-05-20T09:45:24.207Z,3.10
2023-05-20T09:47:52.051Z,3.38
2023-05-20T09:50:20.315Z,2.90
2023-05-20T09:52:47.808Z,2.65
2023-05-20T09:55:15.347Z,3.17
2023-05-20T09:57:42.285Z,2.80
2023-05-20T10:00:09.472Z,2.88
2023-05-20T10:02:51.983Z,2.85
2023-05-20T10:05:32.343Z,2.35
2023-05-20T10:08:16.875Z,3.08
2023-05-20T10:11:12.327Z,3.13
2023-05-20T10:13:53.651Z,3.20
2023-05-20T10:16:38.976Z,3.00
2023-05-20T10:19:27.524Z,3.42
2023-05-20T10:22:08.671Z,2.70
2023-05-20T10:24:37.583Z,3.53
2023-05-20T10:27:08.360Z,3.63
2023-05-20T10:29:43.800Z,2.95
2023-05-20T10:32:10.650Z,2.35
2023-05-20T10:34:48.894Z,2.30
2023-05-20T10:37:24.636Z,2.90
2023-05-20T10:39:51.529Z,3.40
2023-05-20T10:42:28.500Z,2.47
2023-05-20T10:44:55.136Z,3.03
2023-05-20T10:47:26.067Z,2.38
2023-05-20T10:49:53.186Z,1.90
2023-05-20T10:52:20.569Z,2.38
2023-05-20T10:54:54.647Z,2.60
2023-05-20T10:57:22.172Z,2.10
2023-05-20T10:59:49.779Z,2.60
2023-05-20T11:02:18.613Z,2.50
2023-05-20T11:04:46.294Z,2.70
2023-05-20T11:07:13.439Z,2.25
2023-05-20T11:09:40.142Z,2.47
2023-05-20T11:12:07.061Z,2.30
2023-05-20T11:14:35.617Z,2.15
2023-05-20T11:17:02.352Z,2.10
2023-05-20T11:19:29.162Z,1.95
2023-05-20T11:21:55.991Z,2.60
2023-05-20T11:24:25.629Z,2.45
2023-05-20T11:26:52.585Z,2.30
2023-05-20T11:29:19.827Z,1.98
2023-05-20T11:31:50.614Z,2.65
2023-05-20T11:34:21.787Z,2.95
2023-05-20T11:36:56.884Z,2.17
2023-05-20T11:39:23.603Z,2.75
2023-05-20T11:41:50.597Z,2.80
2023-05-20T11:44:20.194Z,2.47
2023-05-20T11:46:48.283Z,2.25
2023-05-20T11:49:15.784Z,2.55
2023-05-20T11:51:43.959Z,2.60
2023-05-20T11:54:10.594Z,2.35
2023-05-20T11:56:38.544Z,2.90
2023-05-20T12:01:35.397Z,2.50
2023-05-20T12:04:02.283Z,2.33
2023-05-20T12:06:29.114Z,2.90
2023-05-20T12:08:55.803Z,2.20
2023-05-20T12:11:22.440Z,2.85
2023-05-20T12:13:49.355Z,3.35
2023-05-20T12:16:16.101Z,2.95
2023-05-20T12:18:42.830Z,2.90
2023-05-20T12:21:09.593Z,2.85
2023-05-20T12:23:36.228Z,3.45
2023-05-20T12:26:03.151Z,2.90
2023-05-20T12:28:29.764Z,3.33
2023-05-20T12:30:56.348Z,4.85
2023-05-20T12:33:22.926Z,4.95
2023-05-20T12:35:49.596Z,4.18
2023-05-20T12:38:16.183Z,4.78
2023-05-20T12:40:43.005Z,3.95
2023-05-20T12:43:09.852Z,4.38
2023-05-20T12:45:36.489Z,4.50
2023-05-20T12:48:04.950Z,4.95
2023-05-20T12:50:31.582Z,5.05
2023-05-20T12:52:58.213Z,5.10
2023-05-20T12:55:24.976Z,4.53
2023-05-20T12:57:51.591Z,5.30
2023-05-20T13:00:18.313Z,4.78
2023-05-20T13:02:45.215Z,5.88
2023-05-20T13:05:12.272Z,5.32
2023-05-20T13:07:39.153Z,4.00
2023-05-20T13:10:07.222Z,4.63
2023-05-20T13:12:35.513Z,5.43
2023-05-20T13:15:02.980Z,5.18
2023-05-20T13:17:30.056Z,4.95
2023-05-20T13:19:56.778Z,5.20
2023-05-20T13:22:23.485Z,4.82
2023-05-20T13:24:50.288Z,4.43
2023-05-20T13:27:17.031Z,4.30
2023-05-20T13:29:43.760Z,4.72
2023-05-20T13:32:10.633Z,4.53
2023-05-20T13:34:37.489Z,4.10
2023-05-20T13:37:04.778Z,5.68
2023-05-20T13:39:31.795Z,5.32
2023-05-20T13:41:58.961Z,4.60
2023-05-20T13:44:25.592Z,4.47
2023-05-20T13:46:52.344Z,5.05
2023-05-20T13:49:19.162Z,6.30
2023-05-20T13:51:45.864Z,5.93
2023-05-20T13:54:12.503Z,6.85
2023-05-20T13:56:39.337Z,5.18
2023-05-20T13:59:06.108Z,5.20
2023-05-20T14:01:33.053Z,5.95
2023-05-20T14:03:59.914Z,5.75
2023-05-20T14:06:27.200Z,5.43
2023-05-20T14:08:55.041Z,5.25
2023-05-20T14:11:21.798Z,5.38
2023-05-20T14:13:48.529Z,6.13
2023-05-20T14:16:15.451Z,5.45
2023-05-20T14:18:42.194Z,5.25
2023-05-20T14:21:08.853Z,5.15
2023-05-20T14:23:35.602Z,4.50
2023-05-20T14:26:02.197Z,5.55
2023-05-20T14:28:28.843Z,5.57
2023-05-20T14:30:55.518Z,5.88
2023-05-20T14:33:22.185Z,5.88
2023-05-20T14:35:48.833Z,5.25
2023-05-20T14:38:16.190Z,4.97
2023-05-20T14:40:42.826Z,4.85
2023-05-20T14:43:09.480Z,4.50
2023-05-20T14:45:36.111Z,5.75
2023-05-20T14:48:02.798Z,6.03
2023-05-20T14:50:29.520Z,5.28
2023-05-20T14:52:56.176Z,4.65
2023-05-20T14:55:22.772Z,5.65
2023-05-20T14:57:49.577Z,4.80
2023-05-20T15:00:16.560Z,4.82
2023-05-20T15:02:43.384Z,5.78
2023-05-20T15:05:10.096Z,4.68
2023-05-20T15:07:36.782Z,6.00
2023-05-20T15:10:03.959Z,5.80
2023-05-20T15:12:30.632Z,4.47
2023-05-20T15:14:57.259Z,5.05
2023-05-20T15:17:23.981Z,5.07
2023-05-20T15:19:50.635Z,5.22
2023-05-20T15:22:17.322Z,7.43
2023-05-20T15:24:43.919Z,9.93
2023-05-20T15:27:10.587Z,8.30
2023-05-20T15:29:38.711Z,7.93
2023-05-20T15:32:06.629Z,7.72
2023-05-20T15:34:33.994Z,5.87
2023-05-20T15:37:00.688Z,5.82
2023-05-20T15:39:27.327Z,5.43
2023-05-20T15:41:54.125Z,5.30
2023-05-20T15:44:20.748Z,6.60
2023-05-20T15:46:47.586Z,5.93
2023-05-20T15:49:14.362Z,4.32
2023-05-20T15:51:44.520Z,4.95
2023-05-20T15:54:15.906Z,4.43
2023-05-20T15:56:42.516Z,5.47
2023-05-20T15:59:09.134Z,4.50
2023-05-20T16:01:35.786Z,5.00
2023-05-20T16:04:02.604Z,5.15
2023-05-20T16:06:29.336Z,4.45
2023-05-20T16:08:55.962Z,5.05
2023-05-20T16:11:23.212Z,4.57
2023-05-20T16:13:49.872Z,5.53
2023-05-20T16:16:16.663Z,5.00
2023-05-20T16:18:43.525Z,5.75
2023-05-20T16:21:13.115Z,5.47
2023-05-20T16:23:39.809Z,4.93
2023-05-20T16:26:06.439Z,5.72
2023-05-20T16:28:33.081Z,5.82
2023-05-20T16:30:59.700Z,4.47
2023-05-20T16:33:26.399Z,5.45
2023-05-20T16:35:53.028Z,5.85
2023-05-20T16:38:19.888Z,5.55
2023-05-20T16:40:46.525Z,6.03
2023-05-20T16:43:13.322Z,5.85
2023-05-20T16:45:40.161Z,5.82
2023-05-20T16:48:06.897Z,5.38
2023-05-20T16:50:33.761Z,5.30
2023-05-20T16:53:00.517Z,6.50
2023-05-20T16:55:27.118Z,5.93
2023-05-20T16:57:53.773Z,6.20
2023-05-20T17:00:20.429Z,5.15
2023-05-20T17:02:47.168Z,6.18
2023-05-20T17:05:16.668Z,5.15
2023-05-20T17:07:43.563Z,6.00
2023-05-20T17:10:10.652Z,5.93
2023-05-20T17:12:37.268Z,5.20
2023-05-20T17:15:04.008Z,5.63
2023-05-20T17:17:30.732Z,6.40
2023-05-20T17:19:57.480Z,5.43
2023-05-20T17:22:24.136Z,4.80
2023-05-20T17:24:50.839Z,5.80
2023-05-20T17:27:17.471Z,5.28
2023-05-20T17:29:44.090Z,5.72
2023-05-20T17:32:10.830Z,6.10
2023-05-20T17:34:37.577Z,5.43
2023-05-20T17:37:04.497Z,5.78
2023-05-20T17:39:31.138Z,5.10
2023-05-20T17:41:57.850Z,5.85
2023-05-20T17:44:24.495Z,5.18
2023-05-20T17:46:51.188Z,5.03
2023-05-20T17:49:17.857Z,6.05
2023-05-20T17:51:44.588Z,5.65
2023-05-20T17:54:11.327Z,5.38
2023-05-20T17:56:37.925Z,4.65
2023-05-20T17:59:04.576Z,4.55
2023-05-20T18:01:31.218Z,4.97
2023-05-20T18:03:57.961Z,5.57
2023-05-20T18:06:24.930Z,5.65
2023-05-20T18:08:51.582Z,5.15
2023-05-20T18:11:18.265Z,5.22
2023-05-20T18:13:44.958Z,4.43
2023-05-20T18:16:11.640Z,5.38
2023-05-20T18:18:38.276Z,5.53
2023-05-20T18:21:05.240Z,4.80
2023-05-20T18:23:31.832Z,5.05
2023-05-20T18:25:58.539Z,5.18
2023-05-20T18:28:25.205Z,5.53
2023-05-20T18:30:51.832Z,5.60
2023-05-20T18:33:18.505Z,4.85
2023-05-20T18:35:45.115Z,5.68
2023-05-20T18:38:11.800Z,5.03
2023-05-20T18:40:38.555Z,4.88
2023-05-20T18:43:05.175Z,4.40
2023-05-20T18:45:31.804Z,4.97
2023-05-20T18:47:58.581Z,5.85
2023-05-20T18:50:25.542Z,5.60
2023-05-20T18:52:52.331Z,6.07
2023-05-20T18:55:19.356Z,5.57
2023-05-20T18:57:45.967Z,5.78
2023-05-20T19:00:13.220Z,5.55
2023-05-20T19:02:40.661Z,7.00
2023-05-20T19:05:09.168Z,4.93
2023-05-20T19:07:35.955Z,5.40
2023-05-20T19:10:03.123Z,4.63
2023-05-20T19:12:29.829Z,6.13
2023-05-20T19:14:56.555Z,5.93
2023-05-20T19:17:23.692Z,6.15
2023-05-20T19:19:50.636Z,5.90
2023-05-20T19:22:17.359Z,5.28
2023-05-20T19:24:43.969Z,5.70
2023-05-20T19:27:10.744Z,6.88
2023-05-20T19:29:37.382Z,5.93
2023-05-20T19:32:04.316Z,5.63
2023-05-20T19:34:31.073Z,4.90
2023-05-20T19:36:57.683Z,5.38
2023-05-20T19:39:24.519Z,6.10
2023-05-20T19:41:51.133Z,6.22
2023-05-20T19:44:17.912Z,5.90
2023-05-20T19:46:44.670Z,6.38
2023-05-20T19:49:11.478Z,5.60
2023-05-20T19:51:38.111Z,5.55
2023-05-20T19:54:04.753Z,5.43
2023-05-20T19:56:31.428Z,6.57
2023-05-20T19:58:58.044Z,5.32
2023-05-20T20:01:24.689Z,6.20
2023-05-20T20:03:51.477Z,6.88
2023-05-20T20:06:18.093Z,5.78
2023-05-20T20:08:44.757Z,5.88
2023-05-20T20:11:12.990Z,5.47
2023-05-20T20:13:39.705Z,6.13
2023-05-20T20:16:06.975Z,6.03
2023-05-20T20:18:33.794Z,5.80
2023-05-20T20:21:00.469Z,5.60
2023-05-20T20:23:27.462Z,6.40
2023-05-20T20:25:54.076Z,6.30
2023-05-20T20:28:21.443Z,6.38
2023-05-20T20:30:48.079Z,5.95
2023-05-20T20:33:14.818Z,6.28
2023-05-20T20:35:41.422Z,4.90
2023-05-20T20:38:08.146Z,5.97
2023-05-20T20:40:38.916Z,5.82
2023-05-20T20:43:06.515Z,5.63
2023-05-20T20:45:34.530Z,5.55
2023-05-20T20:50:28.249Z,5.55
2023-05-20T20:52:54.883Z,6.40
2023-05-20T20:55:21.550Z,6.20
2023-05-20T20:57:48.163Z,4.47
2023-05-20T21:00:14.950Z,5.90
2023-05-20T21:02:41.922Z,6.47
2023-05-20T21:05:08.889Z,6.35
2023-05-20T21:07:35.492Z,5.57
2023-05-20T21:10:02.298Z,5.03
2023-05-20T21:12:28.888Z,5.90
2023-05-20T21:14:55.496Z,5.22
2023-05-20T21:17:22.099Z,5.45
2023-05-20T21:19:48.766Z,5.45
2023-05-20T21:22:15.437Z,5.53
2023-05-20T21:24:42.113Z,6.03
2023-05-20T21:27:08.757Z,5.85
2023-05-20T21:29:36.151Z,5.68
2023-05-20T21:32:03.970Z,5.55
2023-05-20T21:34:30.594Z,4.85
2023-05-20T21:36:57.442Z,5.32
2023-05-20T21:39:24.100Z,6.43
2023-05-20T21:41:50.767Z,5.72
2023-05-20T21:44:17.472Z,5.47
2023-05-20T21:46:44.179Z,5.22
2023-05-20T21:49:10.885Z,5.85
2023-05-20T21:51:37.498Z,4.72
2023-05-20T21:54:04.229Z,5.53
2023-05-20T21:56:30.840Z,6.78
2023-05-20T21:58:57.434Z,5.50
2023-05-20T22:01:24.078Z,5.72
2023-05-20T22:03:51.702Z,5.85
2023-05-20T22:06:18.730Z,6.15
2023-05-20T22:08:45.397Z,5.80
2023-05-20T22:11:12.115Z,6.25
2023-05-20T22:13:38.716Z,6.10
2023-05-20T22:16:05.634Z,5.07
2023-05-20T22:18:32.459Z,5.07
2023-05-20T22:20:59.438Z,4.75
2023-05-20T22:23:27.396Z,5.55
2023-05-20T22:25:54.507Z,5.22
2023-05-20T22:28:21.296Z,5.00
2023-05-20T22:30:47.935Z,5.35
2023-05-20T22:33:14.547Z,5.05
2023-05-20T22:35:41.364Z,5.18
2023-05-20T22:38:08.215Z,5.45
2023-05-20T22:40:34.900Z,5.55
2023-05-20T22:43:01.586Z,5.65
2023-05-20T22:45:28.292Z,5.85
2023-05-20T22:47:54.935Z,5.10
2023-05-20T22:50:21.801Z,5.97
2023-05-20T22:52:48.475Z,5.53
2023-05-20T22:55:15.158Z,5.25
2023-05-20T22:57:41.783Z,5.18
2023-05-20T23:00:09.020Z,5.22
2023-05-20T23:02:35.764Z,4.87
2023-05-20T23:05:02.379Z,4.70
2023-05-20T23:07:28.976Z,4.82
2023-05-20T23:09:55.670Z,4.68
2023-05-20T23:12:22.280Z,5.18
2023-05-20T23:14:48.897Z,4.90
2023-05-20T23:17:15.522Z,5.43
2023-05-20T23:19:42.144Z,5.35
2023-05-20T23:22:08.840Z,4.93
2023-05-20T23:24:35.519Z,4.85
2023-05-20T23:27:02.186Z,6.40
2023-05-20T23:29:28.785Z,4.95
2023-05-20T23:31:55.452Z,5.15
2023-05-20T23:34:22.090Z,4.70
2023-05-20T23:36:48.754Z,4.47
2023-05-20T23:39:17.521Z,4.38
2023-05-20T23:41:45.021Z,6.03
2023-05-20T23:44:11.801Z,4.40
2023-05-20T23:46:38.646Z,5.18
2023-05-20T23:49:05.589Z,4.22
2023-05-20T23:51:32.413Z,4.57
2023-05-20T23:53:59.025Z,5.45
2023-05-20T23:56:25.627Z,5.15
2023-05-20T23:58:52.382Z,4.85
